sensor_id;sensor_type;location;lat;lon;timestamp;pressure;altitude;pressure_sealevel;temperature;humidity
3796;BME280;1913;50.660;7.834;2023-05-02T00:00:37;97371.97;;;5.93;100.00
3796;BME280;1913;50.660;7.834;2023-05-02T00:03:03;97378.34;;;5.98;100.00
3796;BME280;1913;50.660;7.834;2023-05-02T00:05:29;97382.75;;;5.98;100.00
3796;BME280;1913;50.660;7.834;2023-05-02T00:07:55;97379.13;;;5.99;100.00
3796;BME280;1913;50.660;7.834;2023-05-02T00:10:20;97377.53;;;5.98;100.00
3796;BME280;1913;50.660;7.834;2023-05-02T00:12:46;97380.28;;;5.96;100.00
3796;BME280;1913;50.660;7.834;2023-05-02T00:15:11;97382.09;;;5.88;100.00
3796;BME280;1913;50.660;7.834;2023-05-02T00:17:39;97378.34;;;5.82;100.00
3796;BME280;1913;50.660;7.834;2023-05-02T00:20:06;97390.28;;;5.76;100.00
3796;BME280;1913;50.660;7.834;2023-05-02T00:22:33;97391.06;;;5.69;100.00
3796;BME280;1913;50.660;7.834;2023-05-02T00:25:00;97385.56;;;5.64;100.00
3796;BME280;1913;50.660;7.834;2023-05-02T00:27:25;97386.88;;;5.60;100.00
3796;BME280;1913;50.660;7.834;2023-05-02T00:29:50;97393.22;;;5.57;100.00
3796;BME280;1913;50.660;7.834;2023-05-02T00:32:17;97391.59;;;5.56;100.00
3796;BME280;1913;50.660;7.834;2023-05-02T00:34:42;97393.06;;;5.50;100.00
3796;BME280;1913;50.660;7.834;2023-05-02T00:37:08;97390.13;;;5.53;100.00
3796;BME280;1913;50.660;7.834;2023-05-02T00:39:34;97389.84;;;5.48;100.00
3796;BME280;1913;50.660;7.834;2023-05-02T00:42:00;97391.44;;;5.58;100.00
3796;BME280;1913;50.660;7.834;2023-05-02T00:44:26;97393.56;;;5.62;100.00
3796;BME280;1913;50.660;7.834;2023-05-02T00:46:53;97400.69;;;5.68;100.00
3796;BME280;1913;50.660;7.834;2023-05-02T00:49:18;97405.44;;;5.65;100.00
3796;BME280;1913;50.660;7.834;2023-05-02T00:51:44;97401.66;;;5.75;100.00
3796;BME280;1913;50.660;7.834;2023-05-02T00:54:11;97395.94;;;5.88;100.00
3796;BME280;1913;50.660;7.834;2023-05-02T00:56:36;97400.34;;;5.96;100.00
3796;BME280;1913;50.660;7.834;2023-05-02T00:59:03;97407.16;;;6.05;100.00
3796;BME280;1913;50.660;7.834;2023-05-02T01:09:41;97395.94;;;6.44;100.00
3796;BME280;1913;50.660;7.834;2023-05-02T01:12:27;97393.53;;;6.65;100.00
3796;BME280;1913;50.660;7.834;2023-05-02T01:14:54;97401.97;;;6.67;100.00
3796;BME280;1913;50.660;7.834;2023-05-02T01:17:25;97399.97;;;6.78;100.00
3796;BME280;1913;50.660;7.834;2023-05-02T01:20:04;97395.34;;;6.88;100.00
3796;BME280;1913;50.660;7.834;2023-05-02T01:22:30;97395.91;;;6.98;100.00
3796;BME280;1913;50.660;7.834;2023-05-02T01:28:13;97407.34;;;7.20;100.00
3796;BME280;1913;50.660;7.834;2023-05-02T01:30:43;97410.88;;;7.27;100.00
3796;BME280;1913;50.660;7.834;2023-05-02T01:33:13;97413.97;;;7.31;100.00
3796;BME280;1913;50.660;7.834;2023-05-02T01:35:41;97411.09;;;7.40;100.00
3796;BME280;1913;50.660;7.834;2023-05-02T01:38:07;97408.94;;;7.44;100.00
3796;BME280;1913;50.660;7.834;2023-05-02T01:40:33;97404.19;;;7.48;100.00
3796;BME280;1913;50.660;7.834;2023-05-02T01:43:01;97415.38;;;7.56;100.00
3796;BME280;1913;50.660;7.834;2023-05-02T01:45:30;97416.19;;;7.72;100.00
3796;BME280;1913;50.660;7.834;2023-05-02T01:47:57;97420.63;;;7.71;100.00
3796;BME280;1913;50.660;7.834;2023-05-02T01:50:23;97421.19;;;7.81;100.00
3796;BME280;1913;50.660;7.834;2023-05-02T01:52:51;97425.69;;;7.73;100.00
3796;BME280;1913;50.660;7.834;2023-05-02T01:55:17;97427.75;;;7.77;100.00
3796;BME280;1913;50.660;7.834;2023-05-02T01:57:45;97431.09;;;7.86;100.00
3796;BME280;1913;50.660;7.834;2023-05-02T02:00:11;97432.38;;;7.90;100.00
3796;BME280;1913;50.660;7.834;2023-05-02T02:02:38;97436.06;;;7.96;100.00
3796;BME280;1913;50.660;7.834;2023-05-02T02:05:06;97439.41;;;7.89;100.00
3796;BME280;1913;50.660;7.834;2023-05-02T02:07:32;97443.00;;;7.88;100.00
3796;BME280;1913;50.660;7.834;2023-05-02T02:09:58;97443.66;;;7.90;100.00
3796;BME280;1913;50.660;7.834;2023-05-02T02:12:31;97449.16;;;7.96;100.00
3796;BME280;1913;50.660;7.834;2023-05-02T02:15:27;97446.91;;;8.07;100.00
3796;BME280;1913;50.660;7.834;2023-05-02T02:18:01;97452.78;;;7.95;100.00
3796;BME280;1913;50.660;7.834;2023-05-02T02:20:29;97455.59;;;8.08;100.00
3796;BME280;1913;50.660;7.834;2023-05-02T02:22:58;97462.69;;;7.99;100.00
3796;BME280;1913;50.660;7.834;2023-05-02T02:25:25;97461.91;;;8.13;100.00
3796;BME280;1913;50.660;7.834;2023-05-02T02:27:52;97462.34;;;8.17;100.00
3796;BME280;1913;50.660;7.834;2023-05-02T02:30:18;97466.22;;;8.21;100.00
3796;BME280;1913;50.660;7.834;2023-05-02T02:32:43;97461.91;;;8.13;100.00
3796;BME280;1913;50.660;7.834;2023-05-02T02:35:09;97468.84;;;8.21;100.00
3796;BME280;1913;50.660;7.834;2023-05-02T02:37:40;97459.63;;;8.25;100.00
3796;BME280;1913;50.660;7.834;2023-05-02T02:40:18;97468.41;;;8.18;100.00
3796;BME280;1913;50.660;7.834;2023-05-02T02:43:11;97472.09;;;8.23;100.00
3796;BME280;1913;50.660;7.834;2023-05-02T02:48:18;97478.25;;;8.30;100.00
3796;BME280;1913;50.660;7.834;2023-05-02T02:53:46;97489.19;;;8.34;100.00
3796;BME280;1913;50.660;7.834;2023-05-02T02:56:21;97480.00;;;8.38;100.00
3796;BME280;1913;50.660;7.834;2023-05-02T02:59:04;97488.50;;;8.40;100.00
3796;BME280;1913;50.660;7.834;2023-05-02T03:01:32;97490.47;;;8.53;100.00
3796;BME280;1913;50.660;7.834;2023-05-02T03:03:59;97492.09;;;8.54;100.00
3796;BME280;1913;50.660;7.834;2023-05-02T03:06:26;97488.72;;;8.60;100.00
3796;BME280;1913;50.660;7.834;2023-05-02T03:08:51;97499.41;;;8.58;100.00
3796;BME280;1913;50.660;7.834;2023-05-02T03:11:17;97489.81;;;8.66;100.00
3796;BME280;1913;50.660;7.834;2023-05-02T03:13:42;97502.13;;;8.65;100.00
3796;BME280;1913;50.660;7.834;2023-05-02T03:18:52;97496.66;;;8.81;100.00
3796;BME280;1913;50.660;7.834;2023-05-02T03:21:17;97508.50;;;8.77;100.00
3796;BME280;1913;50.660;7.834;2023-05-02T03:23:43;97506.63;;;8.86;100.00
3796;BME280;1913;50.660;7.834;2023-05-02T03:26:08;97506.69;;;8.78;100.00
3796;BME280;1913;50.660;7.834;2023-05-02T03:28:33;97507.50;;;8.78;100.00
3796;BME280;1913;50.660;7.834;2023-05-02T03:30:59;97509.59;;;8.83;100.00
3796;BME280;1913;50.660;7.834;2023-05-02T03:33:24;97510.47;;;8.90;100.00
3796;BME280;1913;50.660;7.834;2023-05-02T03:35:49;97505.31;;;8.82;100.00
3796;BME280;1913;50.660;7.834;2023-05-02T03:38:15;97514.38;;;8.79;100.00
3796;BME280;1913;50.660;7.834;2023-05-02T03:40:40;97516.44;;;8.84;100.00
3796;BME280;1913;50.660;7.834;2023-05-02T03:43:05;97522.59;;;8.91;100.00
3796;BME280;1913;50.660;7.834;2023-05-02T03:45:31;97519.63;;;8.79;100.00
3796;BME280;1913;50.660;7.834;2023-05-02T03:47:56;97521.59;;;8.77;100.00
3796;BME280;1913;50.660;7.834;2023-05-02T03:50:21;97522.34;;;8.86;100.00
3796;BME280;1913;50.660;7.834;2023-05-02T03:52:47;97528.00;;;8.75;100.00
3796;BME280;1913;50.660;7.834;2023-05-02T03:55:12;97522.41;;;8.78;100.00
3796;BME280;1913;50.660;7.834;2023-05-02T03:57:37;97530.56;;;8.83;100.00
3796;BME280;1913;50.660;7.834;2023-05-02T04:00:03;97534.72;;;8.77;100.00
3796;BME280;1913;50.660;7.834;2023-05-02T04:02:29;97532.38;;;8.82;100.00
3796;BME280;1913;50.660;7.834;2023-05-02T04:04:55;97542.13;;;8.74;100.00
3796;BME280;1913;50.660;7.834;2023-05-02T04:07:20;97532.81;;;8.71;100.00
3796;BME280;1913;50.660;7.834;2023-05-02T04:09:46;97539.34;;;8.75;100.00
3796;BME280;1913;50.660;7.834;2023-05-02T04:12:11;97538.13;;;8.78;100.00
3796;BME280;1913;50.660;7.834;2023-05-02T04:14:37;97544.19;;;8.78;100.00
3796;BME280;1913;50.660;7.834;2023-05-02T04:17:02;97545.38;;;8.76;100.00
3796;BME280;1913;50.660;7.834;2023-05-02T04:19:28;97547.97;;;8.91;100.00
3796;BME280;1913;50.660;7.834;2023-05-02T04:21:53;97549.00;;;8.90;100.00
3796;BME280;1913;50.660;7.834;2023-05-02T04:24:19;97547.53;;;8.87;100.00
3796;BME280;1913;50.660;7.834;2023-05-02T04:26:44;97553.50;;;8.81;100.00
3796;BME280;1913;50.660;7.834;2023-05-02T04:29:11;97548.91;;;8.83;100.00
3796;BME280;1913;50.660;7.834;2023-05-02T04:31:37;97558.63;;;8.89;100.00
3796;BME280;1913;50.660;7.834;2023-05-02T04:34:03;97566.25;;;8.84;100.00
3796;BME280;1913;50.660;7.834;2023-05-02T04:36:28;97567.50;;;8.88;100.00
3796;BME280;1913;50.660;7.834;2023-05-02T04:38:54;97569.22;;;8.81;100.00
3796;BME280;1913;50.660;7.834;2023-05-02T04:41:19;97574.47;;;8.81;100.00
3796;BME280;1913;50.660;7.834;2023-05-02T04:43:45;97583.22;;;8.88;100.00
3796;BME280;1913;50.660;7.834;2023-05-02T04:46:11;97581.41;;;8.88;100.00
3796;BME280;1913;50.660;7.834;2023-05-02T04:48:36;97583.66;;;8.92;100.00
3796;BME280;1913;50.660;7.834;2023-05-02T04:51:06;97586.03;;;9.01;100.00
3796;BME280;1913;50.660;7.834;2023-05-02T04:53:31;97585.84;;;8.88;100.00
3796;BME280;1913;50.660;7.834;2023-05-02T04:55:56;97590.28;;;8.87;100.00
3796;BME280;1913;50.660;7.834;2023-05-02T04:58:22;97591.34;;;8.78;100.00
3796;BME280;1913;50.660;7.834;2023-05-02T05:00:47;97595.53;;;8.87;100.00
3796;BME280;1913;50.660;7.834;2023-05-02T05:03:13;97588.38;;;8.81;100.00
3796;BME280;1913;50.660;7.834;2023-05-02T05:05:38;97596.31;;;8.88;100.00
3796;BME280;1913;50.660;7.834;2023-05-02T05:08:04;97599.50;;;8.83;100.00
3796;BME280;1913;50.660;7.834;2023-05-02T05:10:29;97603.19;;;8.89;100.00
3796;BME280;1913;50.660;7.834;2023-05-02T05:12:54;97608.63;;;8.87;100.00
3796;BME280;1913;50.660;7.834;2023-05-02T05:15:20;97612.06;;;8.88;100.00
3796;BME280;1913;50.660;7.834;2023-05-02T05:17:48;97611.06;;;8.89;100.00
3796;BME280;1913;50.660;7.834;2023-05-02T05:20:13;97617.59;;;8.93;100.00
3796;BME280;1913;50.660;7.834;2023-05-02T05:22:39;97613.69;;;9.04;100.00
3796;BME280;1913;50.660;7.834;2023-05-02T05:25:06;97623.63;;;9.08;100.00
3796;BME280;1913;50.660;7.834;2023-05-02T05:27:33;97623.44;;;9.10;100.00
3796;BME280;1913;50.660;7.834;2023-05-02T05:29:58;97622.72;;;9.16;100.00
3796;BME280;1913;50.660;7.834;2023-05-02T05:32:23;97620.91;;;9.17;100.00
3796;BME280;1913;50.660;7.834;2023-05-02T05:34:53;97625.34;;;9.16;100.00
3796;BME280;1913;50.660;7.834;2023-05-02T05:37:19;97629.22;;;9.20;100.00
3796;BME280;1913;50.660;7.834;2023-05-02T05:39:44;97632.56;;;9.14;100.00
3796;BME280;1913;50.660;7.834;2023-05-02T05:42:10;97637.78;;;9.14;100.00
3796;BME280;1913;50.660;7.834;2023-05-02T05:44:36;97634.00;;;9.17;100.00
3796;BME280;1913;50.660;7.834;2023-05-02T05:47:01;97642.88;;;9.16;100.00
3796;BME280;1913;50.660;7.834;2023-05-02T05:49:27;97646.41;;;9.23;100.00
3796;BME280;1913;50.660;7.834;2023-05-02T05:51:52;97653.16;;;9.17;100.00
3796;BME280;1913;50.660;7.834;2023-05-02T05:54:18;97650.63;;;9.24;100.00
3796;BME280;1913;50.660;7.834;2023-05-02T05:56:43;97654.53;;;9.13;100.00
3796;BME280;1913;50.660;7.834;2023-05-02T05:59:09;97655.91;;;9.09;100.00
3796;BME280;1913;50.660;7.834;2023-05-02T06:01:34;97659.63;;;9.15;100.00
3796;BME280;1913;50.660;7.834;2023-05-02T06:04:00;97671.63;;;9.09;100.00
3796;BME280;1913;50.660;7.834;2023-05-02T06:06:27;97670.72;;;9.17;100.00
3796;BME280;1913;50.660;7.834;2023-05-02T06:08:53;97679.94;;;9.13;100.00
3796;BME280;1913;50.660;7.834;2023-05-02T06:11:18;97688.00;;;9.11;100.00
3796;BME280;1913;50.660;7.834;2023-05-02T06:13:44;97682.22;;;9.16;100.00
3796;BME280;1913;50.660;7.834;2023-05-02T06:16:09;97687.91;;;9.04;100.00
3796;BME280;1913;50.660;7.834;2023-05-02T06:18:34;97692.69;;;9.16;100.00
3796;BME280;1913;50.660;7.834;2023-05-02T06:21:04;97697.13;;;9.15;100.00
3796;BME280;1913;50.660;7.834;2023-05-02T06:23:30;97697.59;;;9.19;100.00
3796;BME280;1913;50.660;7.834;2023-05-02T06:26:03;97705.09;;;9.22;100.00
3796;BME280;1913;50.660;7.834;2023-05-02T06:28:29;97705.53;;;9.40;100.00
3796;BME280;1913;50.660;7.834;2023-05-02T06:30:59;97703.81;;;9.47;100.00
3796;BME280;1913;50.660;7.834;2023-05-02T06:33:26;97713.84;;;9.58;100.00
3796;BME280;1913;50.660;7.834;2023-05-02T06:35:52;97722.13;;;9.77;100.00
3796;BME280;1913;50.660;7.834;2023-05-02T06:38:18;97716.19;;;10.04;100.00
3796;BME280;1913;50.660;7.834;2023-05-02T06:40:43;97717.78;;;9.84;100.00
3796;BME280;1913;50.660;7.834;2023-05-02T06:43:10;97728.72;;;9.88;100.00
3796;BME280;1913;50.660;7.834;2023-05-02T06:45:35;97723.22;;;9.82;100.00
3796;BME280;1913;50.660;7.834;2023-05-02T06:48:00;97732.75;;;10.05;100.00
3796;BME280;1913;50.660;7.834;2023-05-02T06:50:26;97737.13;;;9.98;100.00
3796;BME280;1913;50.660;7.834;2023-05-02T06:52:51;97735.97;;;9.86;100.00
3796;BME280;1913;50.660;7.834;2023-05-02T06:55:16;97740.09;;;9.95;100.00
3796;BME280;1913;50.660;7.834;2023-05-02T06:57:42;97746.28;;;9.87;100.00
3796;BME280;1913;50.660;7.834;2023-05-02T07:00:08;97750.16;;;9.91;100.00
3796;BME280;1913;50.660;7.834;2023-05-02T07:02:34;97753.91;;;9.82;100.00
3796;BME280;1913;50.660;7.834;2023-05-02T07:04:59;97758.03;;;9.91;100.00
3796;BME280;1913;50.660;7.834;2023-05-02T07:07:24;97755.03;;;9.94;100.00
3796;BME280;1913;50.660;7.834;2023-05-02T07:09:50;97756.09;;;9.78;100.00
3796;BME280;1913;50.660;7.834;2023-05-02T07:12:16;97755.94;;;10.01;100.00
3796;BME280;1913;50.660;7.834;2023-05-02T07:14:41;97753.50;;;9.85;100.00
3796;BME280;1913;50.660;7.834;2023-05-02T07:17:08;97761.97;;;9.66;100.00
3796;BME280;1913;50.660;7.834;2023-05-02T07:19:33;97759.31;;;9.80;100.00
3796;BME280;1913;50.660;7.834;2023-05-02T07:21:58;97765.81;;;9.84;100.00
3796;BME280;1913;50.660;7.834;2023-05-02T07:24:24;97770.25;;;9.84;100.00
3796;BME280;1913;50.660;7.834;2023-05-02T07:26:50;97772.34;;;9.74;100.00
3796;BME280;1913;50.660;7.834;2023-05-02T07:29:17;97770.00;;;9.79;100.00
3796;BME280;1913;50.660;7.834;2023-05-02T07:31:43;97780.28;;;9.95;100.00
3796;BME280;1913;50.660;7.834;2023-05-02T07:34:08;97775.72;;;10.19;100.00
3796;BME280;1913;50.660;7.834;2023-05-02T07:36:33;97779.19;;;10.04;100.00
3796;BME280;1913;50.660;7.834;2023-05-02T07:38:59;97778.00;;;10.22;100.00
3796;BME280;1913;50.660;7.834;2023-05-02T07:41:24;97785.13;;;10.43;100.00
3796;BME280;1913;50.660;7.834;2023-05-02T07:43:50;97782.56;;;10.49;100.00
3796;BME280;1913;50.660;7.834;2023-05-02T07:46:15;97780.22;;;10.40;100.00
3796;BME280;1913;50.660;7.834;2023-05-02T07:48:40;97787.75;;;10.43;100.00
3796;BME280;1913;50.660;7.834;2023-05-02T07:51:10;97791.19;;;10.43;100.00
3796;BME280;1913;50.660;7.834;2023-05-02T07:53:35;97788.63;;;10.50;100.00
3796;BME280;1913;50.660;7.834;2023-05-02T07:56:04;97789.59;;;10.49;100.00
3796;BME280;1913;50.660;7.834;2023-05-02T07:58:36;97790.03;;;10.74;100.00
3796;BME280;1913;50.660;7.834;2023-05-02T08:01:01;97802.88;;;10.84;100.00
3796;BME280;1913;50.660;7.834;2023-05-02T08:03:28;97802.53;;;11.15;100.00
3796;BME280;1913;50.660;7.834;2023-05-02T08:05:54;97799.47;;;11.39;100.00
3796;BME280;1913;50.660;7.834;2023-05-02T08:08:19;97807.13;;;11.69;100.00
3796;BME280;1913;50.660;7.834;2023-05-02T08:10:44;97817.50;;;11.77;100.00
3796;BME280;1913;50.660;7.834;2023-05-02T08:13:10;97800.72;;;11.78;100.00
3796;BME280;1913;50.660;7.834;2023-05-02T08:15:36;97807.41;;;11.81;100.00
3796;BME280;1913;50.660;7.834;2023-05-02T08:18:01;97803.44;;;11.85;100.00
3796;BME280;1913;50.660;7.834;2023-05-02T08:20:27;97809.31;;;11.93;100.00
3796;BME280;1913;50.660;7.834;2023-05-02T08:22:52;97815.47;;;12.07;100.00
3796;BME280;1913;50.660;7.834;2023-05-02T08:25:17;97814.91;;;12.18;100.00
3796;BME280;1913;50.660;7.834;2023-05-02T08:27:43;97817.25;;;12.00;100.00
3796;BME280;1913;50.660;7.834;2023-05-02T08:30:08;97815.13;;;12.17;100.00
3796;BME280;1913;50.660;7.834;2023-05-02T08:32:35;97824.53;;;12.46;100.00
3796;BME280;1913;50.660;7.834;2023-05-02T08:35:01;97826.03;;;12.82;100.00
3796;BME280;1913;50.660;7.834;2023-05-02T08:37:26;97825.47;;;13.26;100.00
3796;BME280;1913;50.660;7.834;2023-05-02T08:39:52;97818.94;;;13.15;100.00
3796;BME280;1913;50.660;7.834;2023-05-02T08:42:17;97823.41;;;13.15;100.00
3796;BME280;1913;50.660;7.834;2023-05-02T08:44:45;97825.88;;;13.36;100.00
3796;BME280;1913;50.660;7.834;2023-05-02T08:47:12;97827.47;;;13.37;100.00
3796;BME280;1913;50.660;7.834;2023-05-02T08:49:39;97825.25;;;13.21;100.00
3796;BME280;1913;50.660;7.834;2023-05-02T08:52:07;97832.34;;;13.47;100.00
3796;BME280;1913;50.660;7.834;2023-05-02T08:54:33;97835.00;;;13.21;100.00
3796;BME280;1913;50.660;7.834;2023-05-02T08:56:59;97831.53;;;13.27;100.00
3796;BME280;1913;50.660;7.834;2023-05-02T08:59:27;97845.06;;;13.90;100.00
3796;BME280;1913;50.660;7.834;2023-05-02T09:01:58;97834.47;;;14.55;100.00
3796;BME280;1913;50.660;7.834;2023-05-02T09:04:29;97843.00;;;14.64;100.00
3796;BME280;1913;50.660;7.834;2023-05-02T09:06:56;97853.34;;;14.97;100.00
3796;BME280;1913;50.660;7.834;2023-05-02T09:09:21;97847.22;;;15.03;100.00
3796;BME280;1913;50.660;7.834;2023-05-02T09:11:48;97845.81;;;15.25;100.00
3796;BME280;1913;50.660;7.834;2023-05-02T09:14:15;97853.56;;;15.95;100.00
3796;BME280;1913;50.660;7.834;2023-05-02T09:16:41;97849.06;;;15.77;100.00
3796;BME280;1913;50.660;7.834;2023-05-02T09:19:06;97852.44;;;16.40;100.00
3796;BME280;1913;50.660;7.834;2023-05-02T09:21:37;97862.31;;;16.33;100.00
3796;BME280;1913;50.660;7.834;2023-05-02T09:24:24;97856.47;;;16.79;100.00
3796;BME280;1913;50.660;7.834;2023-05-02T09:29:23;97862.56;;;16.61;98.95
3796;BME280;1913;50.660;7.834;2023-05-02T09:31:48;97856.09;;;16.75;100.00
3796;BME280;1913;50.660;7.834;2023-05-02T09:34:17;97854.44;;;16.44;100.00
3796;BME280;1913;50.660;7.834;2023-05-02T09:36:50;97864.31;;;16.00;100.00
3796;BME280;1913;50.660;7.834;2023-05-02T09:39:18;97860.38;;;15.41;100.00
3796;BME280;1913;50.660;7.834;2023-05-02T09:41:45;97858.38;;;14.80;100.00
3796;BME280;1913;50.660;7.834;2023-05-02T09:44:16;97853.22;;;13.95;100.00
3796;BME280;1913;50.660;7.834;2023-05-02T09:47:02;97861.38;;;13.14;100.00
3796;BME280;1913;50.660;7.834;2023-05-02T09:49:44;97858.53;;;13.22;100.00
3796;BME280;1913;50.660;7.834;2023-05-02T09:52:14;97871.03;;;12.80;100.00
3796;BME280;1913;50.660;7.834;2023-05-02T09:54:40;97875.91;;;12.63;100.00
3796;BME280;1913;50.660;7.834;2023-05-02T09:57:06;97873.13;;;12.91;100.00
3796;BME280;1913;50.660;7.834;2023-05-02T09:59:31;97874.94;;;12.84;100.00
3796;BME280;1913;50.660;7.834;2023-05-02T10:01:58;97876.72;;;12.84;100.00
3796;BME280;1913;50.660;7.834;2023-05-02T10:04:25;97881.44;;;13.02;100.00
3796;BME280;1913;50.660;7.834;2023-05-02T10:06:52;97883.06;;;12.96;100.00
3796;BME280;1913;50.660;7.834;2023-05-02T10:09:21;97882.81;;;12.71;100.00
3796;BME280;1913;50.660;7.834;2023-05-02T10:11:50;97886.47;;;12.77;100.00
3796;BME280;1913;50.660;7.834;2023-05-02T10:14:18;97889.34;;;12.88;100.00
3796;BME280;1913;50.660;7.834;2023-05-02T10:16:54;97891.16;;;12.94;100.00
3796;BME280;1913;50.660;7.834;2023-05-02T10:19:28;97898.91;;;13.03;100.00
3796;BME280;1913;50.660;7.834;2023-05-02T10:21:54;97900.97;;;13.21;100.00
3796;BME280;1913;50.660;7.834;2023-05-02T10:24:21;97892.69;;;13.63;100.00
3796;BME280;1913;50.660;7.834;2023-05-02T10:26:47;97896.22;;;14.22;100.00
3796;BME280;1913;50.660;7.834;2023-05-02T10:29:12;97905.66;;;13.92;100.00
3796;BME280;1913;50.660;7.834;2023-05-02T10:31:39;97906.47;;;13.59;100.00
3796;BME280;1913;50.660;7.834;2023-05-02T10:34:07;97907.41;;;12.91;100.00
3796;BME280;1913;50.660;7.834;2023-05-02T10:36:35;97910.03;;;12.37;100.00
3796;BME280;1913;50.660;7.834;2023-05-02T10:39:01;97917.91;;;12.30;100.00
3796;BME280;1913;50.660;7.834;2023-05-02T10:41:29;97920.88;;;12.14;100.00
3796;BME280;1913;50.660;7.834;2023-05-02T10:43:56;97925.06;;;12.02;100.00
3796;BME280;1913;50.660;7.834;2023-05-02T10:46:30;97923.22;;;12.02;100.00
3796;BME280;1913;50.660;7.834;2023-05-02T10:49:14;97927.50;;;12.03;100.00
3796;BME280;1913;50.660;7.834;2023-05-02T10:51:41;97920.03;;;12.07;100.00
3796;BME280;1913;50.660;7.834;2023-05-02T10:59:32;97932.78;;;12.03;100.00
3796;BME280;1913;50.660;7.834;2023-05-02T11:01:58;97928.16;;;12.46;100.00
3796;BME280;1913;50.660;7.834;2023-05-02T11:04:24;97938.66;;;12.40;100.00
3796;BME280;1913;50.660;7.834;2023-05-02T11:11:49;97928.69;;;12.90;100.00
3796;BME280;1913;50.660;7.834;2023-05-02T11:19:29;97943.34;;;12.99;100.00
3796;BME280;1913;50.660;7.834;2023-05-02T11:24:47;97942.69;;;12.90;100.00
3796;BME280;1913;50.660;7.834;2023-05-02T11:29:54;97936.88;;;13.15;100.00
3796;BME280;1913;50.660;7.834;2023-05-02T11:32:20;97931.56;;;13.02;100.00
3796;BME280;1913;50.660;7.834;2023-05-02T11:34:47;97931.75;;;12.93;100.00
3796;BME280;1913;50.660;7.834;2023-05-02T11:37:17;97932.56;;;12.94;100.00
3796;BME280;1913;50.660;7.834;2023-05-02T11:39:42;97940.66;;;12.86;100.00
3796;BME280;1913;50.660;7.834;2023-05-02T11:42:08;97938.16;;;12.64;100.00
3796;BME280;1913;50.660;7.834;2023-05-02T11:44:35;97942.13;;;12.47;100.00
3796;BME280;1913;50.660;7.834;2023-05-02T11:47:16;97948.72;;;12.30;100.00
3796;BME280;1913;50.660;7.834;2023-05-02T11:49:41;97945.84;;;11.90;100.00
3796;BME280;1913;50.660;7.834;2023-05-02T11:52:07;97949.13;;;11.49;100.00
3796;BME280;1913;50.660;7.834;2023-05-02T11:54:32;97944.00;;;11.41;100.00
3796;BME280;1913;50.660;7.834;2023-05-02T11:56:59;97951.31;;;11.45;100.00
3796;BME280;1913;50.660;7.834;2023-05-02T11:59:25;97949.47;;;11.18;100.00
3796;BME280;1913;50.660;7.834;2023-05-02T12:01:51;97951.91;;;11.19;100.00
3796;BME280;1913;50.660;7.834;2023-05-02T12:04:17;97943.81;;;11.64;100.00
3796;BME280;1913;50.660;7.834;2023-05-02T12:06:56;97956.66;;;12.02;100.00
3796;BME280;1913;50.660;7.834;2023-05-02T12:09:22;97954.53;;;12.53;100.00
3796;BME280;1913;50.660;7.834;2023-05-02T12:11:51;97953.78;;;13.34;100.00
3796;BME280;1913;50.660;7.834;2023-05-02T12:14:25;97960.53;;;13.63;100.00
3796;BME280;1913;50.660;7.834;2023-05-02T12:16:51;97966.41;;;13.38;100.00
3796;BME280;1913;50.660;7.834;2023-05-02T12:19:16;97972.09;;;13.42;100.00
3796;BME280;1913;50.660;7.834;2023-05-02T12:21:42;97978.06;;;13.16;100.00
3796;BME280;1913;50.660;7.834;2023-05-02T12:24:08;97970.16;;;13.03;100.00
3796;BME280;1913;50.660;7.834;2023-05-02T12:26:35;97972.81;;;13.09;100.00
3796;BME280;1913;50.660;7.834;2023-05-02T12:29:00;97968.22;;;13.31;100.00
3796;BME280;1913;50.660;7.834;2023-05-02T12:31:26;97970.88;;;13.38;100.00
3796;BME280;1913;50.660;7.834;2023-05-02T12:33:55;97969.44;;;13.55;100.00
3796;BME280;1913;50.660;7.834;2023-05-02T12:36:22;97971.06;;;13.83;100.00
3796;BME280;1913;50.660;7.834;2023-05-02T12:38:52;97979.41;;;14.06;100.00
3796;BME280;1913;50.660;7.834;2023-05-02T12:41:31;97984.69;;;14.06;100.00
3796;BME280;1913;50.660;7.834;2023-05-02T12:43:57;97972.50;;;13.79;100.00
3796;BME280;1913;50.660;7.834;2023-05-02T12:46:24;97986.13;;;13.56;100.00
3796;BME280;1913;50.660;7.834;2023-05-02T12:49:01;97983.88;;;14.06;100.00
3796;BME280;1913;50.660;7.834;2023-05-02T12:51:27;97976.53;;;14.21;100.00
3796;BME280;1913;50.660;7.834;2023-05-02T12:53:52;97989.94;;;14.26;100.00
3796;BME280;1913;50.660;7.834;2023-05-02T12:56:18;97995.03;;;14.14;100.00
3796;BME280;1913;50.660;7.834;2023-05-02T12:58:46;97992.63;;;14.13;100.00
3796;BME280;1913;50.660;7.834;2023-05-02T13:01:12;97994.06;;;13.89;100.00
3796;BME280;1913;50.660;7.834;2023-05-02T13:03:38;97993.59;;;14.25;100.00
3796;BME280;1913;50.660;7.834;2023-05-02T13:06:04;98001.94;;;14.55;100.00
3796;BME280;1913;50.660;7.834;2023-05-02T13:08:31;98003.34;;;14.51;100.00
3796;BME280;1913;50.660;7.834;2023-05-02T13:10:57;98001.75;;;14.24;100.00
3796;BME280;1913;50.660;7.834;2023-05-02T13:13:22;98009.88;;;13.56;100.00
3796;BME280;1913;50.660;7.834;2023-05-02T13:15:47;98012.28;;;13.31;100.00
3796;BME280;1913;50.660;7.834;2023-05-02T13:18:13;98006.47;;;13.07;100.00
3796;BME280;1913;50.660;7.834;2023-05-02T13:20:38;98011.38;;;13.10;100.00
3796;BME280;1913;50.660;7.834;2023-05-02T13:23:03;98017.44;;;13.04;100.00
3796;BME280;1913;50.660;7.834;2023-05-02T13:25:29;98013.75;;;12.92;100.00
3796;BME280;1913;50.660;7.834;2023-05-02T13:27:54;98019.03;;;13.05;100.00
3796;BME280;1913;50.660;7.834;2023-05-02T13:30:19;98019.03;;;12.99;100.00
3796;BME280;1913;50.660;7.834;2023-05-02T13:32:45;98019.84;;;12.99;100.00
3796;BME280;1913;50.660;7.834;2023-05-02T13:35:10;98024.19;;;13.20;100.00
3796;BME280;1913;50.660;7.834;2023-05-02T13:37:38;98021.06;;;13.64;100.00
3796;BME280;1913;50.660;7.834;2023-05-02T13:40:05;98018.03;;;13.68;100.00
3796;BME280;1913;50.660;7.834;2023-05-02T13:42:31;98010.72;;;13.70;100.00
3796;BME280;1913;50.660;7.834;2023-05-02T13:44:56;98016.81;;;13.97;100.00
3796;BME280;1913;50.660;7.834;2023-05-02T13:47:21;98017.16;;;14.47;100.00
3796;BME280;1913;50.660;7.834;2023-05-02T13:49:47;98014.31;;;14.48;92.07
3796;BME280;1913;50.660;7.834;2023-05-02T13:52:12;98014.28;;;14.68;94.27
3796;BME280;1913;50.660;7.834;2023-05-02T13:54:38;98017.19;;;14.33;93.97
3796;BME280;1913;50.660;7.834;2023-05-02T13:57:03;98019.25;;;13.72;95.87
3796;BME280;1913;50.660;7.834;2023-05-02T13:59:29;98024.09;;;13.55;100.00